This is the latest recevied weather packets stored in our database for station/object N5RPG. If no packets are shown the sender has not sent any weather packets the latest 10 day(s).
| Time | Temp. | Humidity | Pressure | Rain* | Wind** | Luminosity | Snow |
|---|---|---|---|---|---|---|---|
| 1777496604 | 18.33° C | 97% | 1012.9 hPa | 1.27 mm | - | 4 W/m² | - |
| 1777496300 | 18.33° C | 97% | 1012.6 hPa | 1.27 mm | - | 8 W/m² | - |
| 1777495996 | 18.33° C | 97% | 1012.6 hPa | 1.27 mm | - | 13 W/m² | - |
| 1777495692 | 18.33° C | 97% | 1012.8 hPa | 0.51 mm | - | 19 W/m² | - |
| 1777495389 | 18.33° C | 97% | 1013.6 hPa | 0 mm | - | 11 W/m² | - |
| 1777495085 | 18.33° C | 97% | 1013.5 hPa | 0 mm | - | 18 W/m² | - |
| 1777494783 | 18.33° C | 97% | 1012.7 hPa | 0 mm | - | 34 W/m² | - |
| 1777494479 | 18.33° C | 97% | 1012.8 hPa | 0 mm | - | 46 W/m² | - |
| 1777494176 | 18.33° C | 97% | 1012.9 hPa | 0 mm | - | 20 W/m² | - |
| 1777493873 | 18.33° C | 97% | 1012.8 hPa | 0 mm | - | 44 W/m² | - |
| 1777493572 | 18.33° C | 97% | 1012.8 hPa | 0 mm | - | 53 W/m² | - |
| 1777493269 | 18.33° C | 96% | 1012.7 hPa | 0.51 mm | - | 64 W/m² | - |
| 1777492965 | 18.33° C | 96% | 1012.4 hPa | 6.6 mm | - | 90 W/m² | - |
| 1777492662 | 18.33° C | 96% | 1011.8 hPa | 14.99 mm | - | 125 W/m² | - |
| 1777492362 | 18.33° C | 96% | 1012.5 hPa | 12.7 mm | - | 121 W/m² | - |
| 1777492059 | 18.33° C | 96% | 1013.2 hPa | 12.7 mm | - | 85 W/m² | - |
| 1777491756 | 18.33° C | 96% | 1013.3 hPa | 7.11 mm | - | 78 W/m² | - |
| 1777491453 | 18.33° C | 96% | 1013 hPa | 1.78 mm | - | 117 W/m² | - |
| 1777491150 | 18.33° C | 96% | 1013.3 hPa | 1.78 mm | - | 145 W/m² | - |
| 1777490846 | 17.78° C | 96% | 1014.1 hPa | 0.51 mm | - | 118 W/m² | - |
| 1777490542 | 18.33° C | 96% | 1014.3 hPa | 0.51 mm | - | 53 W/m² | - |
| 1777490239 | 18.33° C | 96% | 1013.8 hPa | 0 mm | - | 87 W/m² | - |
| 1777489936 | 18.33° C | 96% | 1014.3 hPa | 0 mm | - | 82 W/m² | - |
| 1777489634 | 18.33° C | 96% | 1014.2 hPa | 0 mm | - | 40 W/m² | - |
| 1777489330 | 17.78° C | 96% | 1014.1 hPa | 0 mm | - | 82 W/m² | - |
* Rain latest hour (hover to see other rain measurements)
** Current wind speed in m/s (hover to see current wind gust speed)